Pagrindinis puslapis
METAR-TAF:

METAR-TAF

Oro uostai :

Tarbas-Lurdas, Prancūzija

platuma: 43-11N, ilguma: 000-00W, Aukštis: 379 m

Dabartinis oras

Ataskaita buvo paskelbta 44 minutes, ne 16:00 UTC
Vėjas 5 kt iš Šiaurės/Šiaurės Rytų, svyruoja nuo Šiaurės/Šiaurės Vakarų ir Šiaurės Rytų
Temperatūra 10°C
Drėgmė 66%
Slėgis 1013 hPa
Matomumas 10 km arba daugiau
Išsisklaidę debesys ne aukštis 3300 ft
Su prošvaistėmis ne aukštis 10000 ft
Su prošvaistėmis ne aukštis 24000 ft

METAR: LFBT 311600Z AUTO 02005KT 340V050 9999 SCT033 BKN100 BKN240 10/04 Q1013

Laikas: 18:44 (16:44 UTC)


TAF: trūkstamas

Orai ataskaitas ir orų prognozės (METAR, TAF).

turimą stotys yra geltonos ir raudonos taškus žemėlapyje.

Perkelti pele per norėdami pamatyti stoties vardą.

Tada spustelėkite, norėdami matyti oro stebėjimo ir prognozės.

Norėdami pakeisti žemėlapį: spustelėkite ant žalios mygtukų su juodo kryžiaus žemyn,; žalią mygtuką su brūkšneliu, jei norite nutolinti; arba žalių rodyklių gretimoms žemėlapius.


METAR-TAF: